Weather at Camden East Airstrip

Public forecast

Using degrees Celsius for public forecast. Weather courtesy of forecast.io.

Closest aviation weather report (METAR) to Camden East Airstrip

Closest report is Kingston Norman Rogers Airport, 10.3 nm (19.2 km) SE.

2024/07/23 00:00 (retrieved 28 minutes ago)

CYGK 230000Z 00000KT 15SM FEW020TCU SCT080 OVC250 24/19 A2995 RMK TCU1AC2CI5 SLP144 DENSITY ALT 1400FT

Closest aviation forecast (TAF) to Camden East Airstrip

Closest forecast is Kingston Norman Rogers Airport, 10.3 nm (19.2 km) SE.

2024/07/22 20:00 (retrieved 4 hours ago)

TAF CYGK 221940Z 2220/2303 18008KT P6SM FEW015 SCT040 BKN250 RMK NXT FCST BY 231200Z